Pagina principale
METAR-TAF:

METAR-TAF

Aeroporti :

Lorient, Francia

latitudine: 47-46N, longitudine: 003-27W, altezza: 52 m

Osservazione

Il bollettino è stato emesso 33 minuti fa, alle 11:30 UTC
Vento 8 kt da ovest/sud-ovest
Temperature 18°C
Umidità 52%
Pressione 1021 hPa
Visibilità 10 km o più
nessuna nube inferiore a 1500 m e nessun cumulonembo

METAR: LFRH 191130Z AUTO 25008KT CAVOK 18/08 Q1021 NOSIG

Ora: 14:03 (12:03 UTC)

Previsione

Il bollettino è stato emesso 1 ora e 3 minuti fa, alle 11:00 UTC
Previsione valida dal 19 alle 12 UTC al 20 alle 12 UTC
Vento 10 kt da sud-ovest
Visibilità 10 km o più
nessuna nube inferiore a 1500 m e nessun cumulonembo
Evoluzione graduale
dal 19 alle 21 UTC al 19 alle 23 UTC
Vento 5 kt da nord-est
Evoluzione graduale
dal 20 alle 05 UTC al 20 alle 07 UTC
Vento 10 kt da nord/nord-ovest

TAF: LFRH 191100Z 1912/2012 22010KT CAVOK BECMG 1921/1923 05005KT BECMG 2005/2007 34010KT

Osservazioni e previsioni meteorologiche di più di 4000 aeroporti (messaggi METAR e TAF).

Le stazioni disponibili sono rappresentate dai dischi gialli e rossi sulla carta.

Puntare il mouse per vedere il nome della stazione.

Clicca sopra per visualizzare le osservazioni e previsioni meteorologiche.

Per cambiare la mappa : fare clic sui pulsanti verdi con una croce nera per ingrandire, il pulsante verde con un trattino per diminuire, o sulla freccia verde per le mappe adiacenti.


METAR-TAF: